sensor_id;sensor_type;location;lat;lon;timestamp;temperature;humidity
46720;DHT22;32452;51.382;-0.002;2023-07-08T00:01:58;21.30;60.50
46720;DHT22;32452;51.382;-0.002;2023-07-08T00:04:44;21.30;60.80
46720;DHT22;32452;51.382;-0.002;2023-07-08T00:07:30;21.30;60.90
46720;DHT22;32452;51.382;-0.002;2023-07-08T00:10:24;21.40;61.00
46720;DHT22;32452;51.382;-0.002;2023-07-08T00:13:10;21.50;60.90
46720;DHT22;32452;51.382;-0.002;2023-07-08T00:15:56;21.50;60.90
46720;DHT22;32452;51.382;-0.002;2023-07-08T00:18:42;21.60;60.90
46720;DHT22;32452;51.382;-0.002;2023-07-08T00:21:28;21.70;60.80
46720;DHT22;32452;51.382;-0.002;2023-07-08T00:24:14;21.70;60.50
46720;DHT22;32452;51.382;-0.002;2023-07-08T00:26:59;21.80;60.40
46720;DHT22;32452;51.382;-0.002;2023-07-08T00:29:45;21.80;60.20
46720;DHT22;32452;51.382;-0.002;2023-07-08T00:32:30;21.90;60.20
46720;DHT22;32452;51.382;-0.002;2023-07-08T00:35:16;21.90;60.00
46720;DHT22;32452;51.382;-0.002;2023-07-08T00:38:15;22.00;60.10
46720;DHT22;32452;51.382;-0.002;2023-07-08T00:41:24;22.00;60.00
46720;DHT22;32452;51.382;-0.002;2023-07-08T00:44:12;22.00;59.90
46720;DHT22;32452;51.382;-0.002;2023-07-08T00:47:04;22.00;59.80
46720;DHT22;32452;51.382;-0.002;2023-07-08T00:49:57;22.00;59.80
46720;DHT22;32452;51.382;-0.002;2023-07-08T00:52:44;22.00;59.70
46720;DHT22;32452;51.382;-0.002;2023-07-08T00:55:30;22.00;59.60
46720;DHT22;32452;51.382;-0.002;2023-07-08T00:58:19;22.10;59.50
46720;DHT22;32452;51.382;-0.002;2023-07-08T01:01:07;22.10;59.40
46720;DHT22;32452;51.382;-0.002;2023-07-08T01:03:57;22.10;59.30
46720;DHT22;32452;51.382;-0.002;2023-07-08T01:06:47;22.10;59.20
46720;DHT22;32452;51.382;-0.002;2023-07-08T01:09:45;22.10;59.00
46720;DHT22;32452;51.382;-0.002;2023-07-08T01:12:36;22.10;59.00
46720;DHT22;32452;51.382;-0.002;2023-07-08T01:15:25;22.10;58.90
46720;DHT22;32452;51.382;-0.002;2023-07-08T01:18:15;22.10;58.90
46720;DHT22;32452;51.382;-0.002;2023-07-08T01:21:04;22.10;58.80
46720;DHT22;32452;51.382;-0.002;2023-07-08T01:23:51;22.10;58.80
46720;DHT22;32452;51.382;-0.002;2023-07-08T01:26:41;22.10;58.80
46720;DHT22;32452;51.382;-0.002;2023-07-08T01:29:29;22.10;58.70
46720;DHT22;32452;51.382;-0.002;2023-07-08T01:32:15;22.10;58.70
46720;DHT22;32452;51.382;-0.002;2023-07-08T01:35:05;22.10;58.80
46720;DHT22;32452;51.382;-0.002;2023-07-08T01:37:57;22.10;58.80
46720;DHT22;32452;51.382;-0.002;2023-07-08T01:40:54;22.10;58.80
46720;DHT22;32452;51.382;-0.002;2023-07-08T01:43:41;22.00;58.80
46720;DHT22;32452;51.382;-0.002;2023-07-08T01:46:27;22.00;58.90
46720;DHT22;32452;51.382;-0.002;2023-07-08T01:49:13;22.00;58.90
46720;DHT22;32452;51.382;-0.002;2023-07-08T01:51:59;22.00;59.00
46720;DHT22;32452;51.382;-0.002;2023-07-08T01:54:45;22.00;59.00
46720;DHT22;32452;51.382;-0.002;2023-07-08T01:57:31;22.00;59.10
46720;DHT22;32452;51.382;-0.002;2023-07-08T02:00:16;22.00;59.10
46720;DHT22;32452;51.382;-0.002;2023-07-08T02:03:02;21.90;59.70
46720;DHT22;32452;51.382;-0.002;2023-07-08T02:05:48;21.90;59.80
46720;DHT22;32452;51.382;-0.002;2023-07-08T02:08:33;21.90;59.20
46720;DHT22;32452;51.382;-0.002;2023-07-08T02:11:19;21.90;59.30
46720;DHT22;32452;51.382;-0.002;2023-07-08T02:14:04;21.90;59.30
46720;DHT22;32452;51.382;-0.002;2023-07-08T02:16:50;21.90;59.30
46720;DHT22;32452;51.382;-0.002;2023-07-08T02:19:35;21.90;59.40
46720;DHT22;32452;51.382;-0.002;2023-07-08T02:22:21;21.90;59.40
46720;DHT22;32452;51.382;-0.002;2023-07-08T02:25:07;21.90;59.50
46720;DHT22;32452;51.382;-0.002;2023-07-08T02:27:54;21.90;59.50
46720;DHT22;32452;51.382;-0.002;2023-07-08T02:30:42;21.90;59.50
46720;DHT22;32452;51.382;-0.002;2023-07-08T02:33:27;21.90;59.50
46720;DHT22;32452;51.382;-0.002;2023-07-08T02:36:19;21.90;59.60
46720;DHT22;32452;51.382;-0.002;2023-07-08T02:39:04;21.90;59.70
46720;DHT22;32452;51.382;-0.002;2023-07-08T02:41:51;21.90;59.70
46720;DHT22;32452;51.382;-0.002;2023-07-08T02:44:36;21.90;59.70
46720;DHT22;32452;51.382;-0.002;2023-07-08T02:47:22;21.90;59.80
46720;DHT22;32452;51.382;-0.002;2023-07-08T02:50:09;21.90;59.80
46720;DHT22;32452;51.382;-0.002;2023-07-08T02:52:54;22.00;60.00
46720;DHT22;32452;51.382;-0.002;2023-07-08T02:55:40;21.90;59.90
46720;DHT22;32452;51.382;-0.002;2023-07-08T02:58:28;22.00;60.00
46720;DHT22;32452;51.382;-0.002;2023-07-08T03:01:13;22.00;60.00
46720;DHT22;32452;51.382;-0.002;2023-07-08T03:04:03;22.00;60.10
46720;DHT22;32452;51.382;-0.002;2023-07-08T03:06:50;22.00;60.10
46720;DHT22;32452;51.382;-0.002;2023-07-08T03:09:36;22.00;60.10
46720;DHT22;32452;51.382;-0.002;2023-07-08T03:12:21;22.00;60.10
46720;DHT22;32452;51.382;-0.002;2023-07-08T03:15:07;22.00;60.20
46720;DHT22;32452;51.382;-0.002;2023-07-08T03:17:53;22.00;60.20
46720;DHT22;32452;51.382;-0.002;2023-07-08T03:20:47;22.00;60.30
46720;DHT22;32452;51.382;-0.002;2023-07-08T03:23:33;22.00;60.40
46720;DHT22;32452;51.382;-0.002;2023-07-08T03:26:23;22.00;60.50
46720;DHT22;32452;51.382;-0.002;2023-07-08T03:29:17;22.00;60.70
46720;DHT22;32452;51.382;-0.002;2023-07-08T03:32:04;22.00;60.80
46720;DHT22;32452;51.382;-0.002;2023-07-08T03:34:49;22.00;60.90
46720;DHT22;32452;51.382;-0.002;2023-07-08T03:37:34;22.00;61.00
46720;DHT22;32452;51.382;-0.002;2023-07-08T03:40:20;22.00;61.10
46720;DHT22;32452;51.382;-0.002;2023-07-08T03:43:06;21.90;61.30
46720;DHT22;32452;51.382;-0.002;2023-07-08T03:45:51;22.00;61.60
46720;DHT22;32452;51.382;-0.002;2023-07-08T03:48:37;21.90;61.60
46720;DHT22;32452;51.382;-0.002;2023-07-08T03:51:26;21.90;61.80
46720;DHT22;32452;51.382;-0.002;2023-07-08T03:54:13;21.90;62.10
46720;DHT22;32452;51.382;-0.002;2023-07-08T03:56:59;21.90;62.20
46720;DHT22;32452;51.382;-0.002;2023-07-08T03:59:46;21.80;63.10
46720;DHT22;32452;51.382;-0.002;2023-07-08T04:02:31;21.80;62.50
46720;DHT22;32452;51.382;-0.002;2023-07-08T04:05:20;21.80;62.70
46720;DHT22;32452;51.382;-0.002;2023-07-08T04:08:06;21.80;62.80
46720;DHT22;32452;51.382;-0.002;2023-07-08T04:10:52;21.80;63.00
46720;DHT22;32452;51.382;-0.002;2023-07-08T04:13:37;21.80;63.20
46720;DHT22;32452;51.382;-0.002;2023-07-08T04:16:25;21.70;63.40
46720;DHT22;32452;51.382;-0.002;2023-07-08T04:19:14;21.70;63.70
46720;DHT22;32452;51.382;-0.002;2023-07-08T04:22:02;21.70;63.90
46720;DHT22;32452;51.382;-0.002;2023-07-08T04:24:47;21.70;64.10
46720;DHT22;32452;51.382;-0.002;2023-07-08T04:27:33;21.70;64.20
46720;DHT22;32452;51.382;-0.002;2023-07-08T04:30:22;21.60;65.30
46720;DHT22;32452;51.382;-0.002;2023-07-08T04:33:12;21.60;64.70
46720;DHT22;32452;51.382;-0.002;2023-07-08T04:35:58;21.60;64.80
46720;DHT22;32452;51.382;-0.002;2023-07-08T04:38:44;21.60;64.90
46720;DHT22;32452;51.382;-0.002;2023-07-08T04:41:32;21.60;65.00
46720;DHT22;32452;51.382;-0.002;2023-07-08T04:44:18;21.60;65.20
46720;DHT22;32452;51.382;-0.002;2023-07-08T04:47:05;21.60;65.30
46720;DHT22;32452;51.382;-0.002;2023-07-08T04:49:50;21.60;65.40
46720;DHT22;32452;51.382;-0.002;2023-07-08T04:52:36;21.60;65.50
46720;DHT22;32452;51.382;-0.002;2023-07-08T04:55:22;21.70;65.70
46720;DHT22;32452;51.382;-0.002;2023-07-08T04:58:07;21.70;65.80
46720;DHT22;32452;51.382;-0.002;2023-07-08T05:00:53;21.70;65.90
46720;DHT22;32452;51.382;-0.002;2023-07-08T05:03:38;21.70;66.00
46720;DHT22;32452;51.382;-0.002;2023-07-08T05:06:24;21.80;66.30
46720;DHT22;32452;51.382;-0.002;2023-07-08T05:09:10;21.80;66.30
46720;DHT22;32452;51.382;-0.002;2023-07-08T05:11:57;22.00;66.30
46720;DHT22;32452;51.382;-0.002;2023-07-08T05:14:43;22.30;66.10
46720;DHT22;32452;51.382;-0.002;2023-07-08T05:17:29;22.40;65.80
46720;DHT22;32452;51.382;-0.002;2023-07-08T05:20:15;22.50;65.50
46720;DHT22;32452;51.382;-0.002;2023-07-08T05:23:01;22.80;65.40
46720;DHT22;32452;51.382;-0.002;2023-07-08T05:25:48;23.00;64.80
46720;DHT22;32452;51.382;-0.002;2023-07-08T05:28:34;23.20;64.40
46720;DHT22;32452;51.382;-0.002;2023-07-08T05:31:19;23.40;64.10
46720;DHT22;32452;51.382;-0.002;2023-07-08T05:34:04;23.70;63.60
46720;DHT22;32452;51.382;-0.002;2023-07-08T05:36:50;23.80;63.20
46720;DHT22;32452;51.382;-0.002;2023-07-08T05:39:36;23.80;63.20
46720;DHT22;32452;51.382;-0.002;2023-07-08T05:42:22;23.90;62.80
46720;DHT22;32452;51.382;-0.002;2023-07-08T05:45:08;24.30;62.10
46720;DHT22;32452;51.382;-0.002;2023-07-08T05:47:55;24.60;61.30
46720;DHT22;32452;51.382;-0.002;2023-07-08T05:50:41;25.10;60.20
46720;DHT22;32452;51.382;-0.002;2023-07-08T05:53:27;25.80;59.20
46720;DHT22;32452;51.382;-0.002;2023-07-08T05:56:12;26.40;58.00
46720;DHT22;32452;51.382;-0.002;2023-07-08T05:58:58;26.90;57.10
46720;DHT22;32452;51.382;-0.002;2023-07-08T06:01:43;27.20;56.20
46720;DHT22;32452;51.382;-0.002;2023-07-08T06:04:29;27.60;55.50
46720;DHT22;32452;51.382;-0.002;2023-07-08T06:07:16;27.90;55.20
46720;DHT22;32452;51.382;-0.002;2023-07-08T06:10:02;28.10;54.60
46720;DHT22;32452;51.382;-0.002;2023-07-08T06:12:48;28.30;54.00
46720;DHT22;32452;51.382;-0.002;2023-07-08T06:15:33;28.50;53.50
46720;DHT22;32452;51.382;-0.002;2023-07-08T06:18:19;28.50;53.10
46720;DHT22;32452;51.382;-0.002;2023-07-08T06:21:05;28.50;52.90
46720;DHT22;32452;51.382;-0.002;2023-07-08T06:23:51;28.80;52.90
46720;DHT22;32452;51.382;-0.002;2023-07-08T06:26:36;28.90;52.60
46720;DHT22;32452;51.382;-0.002;2023-07-08T06:29:23;29.00;52.10
46720;DHT22;32452;51.382;-0.002;2023-07-08T06:32:09;29.20;51.90
46720;DHT22;32452;51.382;-0.002;2023-07-08T06:34:55;29.30;51.70
46720;DHT22;32452;51.382;-0.002;2023-07-08T06:37:40;29.60;51.40
46720;DHT22;32452;51.382;-0.002;2023-07-08T06:40:26;29.80;50.90
46720;DHT22;32452;51.382;-0.002;2023-07-08T06:43:12;29.80;50.80
46720;DHT22;32452;51.382;-0.002;2023-07-08T06:45:57;29.80;50.70
46720;DHT22;32452;51.382;-0.002;2023-07-08T06:48:43;29.80;50.70
46720;DHT22;32452;51.382;-0.002;2023-07-08T06:51:28;29.80;50.90
46720;DHT22;32452;51.382;-0.002;2023-07-08T06:54:14;29.90;50.90
46720;DHT22;32452;51.382;-0.002;2023-07-08T06:57:00;30.10;50.90
46720;DHT22;32452;51.382;-0.002;2023-07-08T06:59:46;30.20;50.60
46720;DHT22;32452;51.382;-0.002;2023-07-08T07:02:31;30.20;50.50
46720;DHT22;32452;51.382;-0.002;2023-07-08T07:05:17;30.30;50.60
46720;DHT22;32452;51.382;-0.002;2023-07-08T07:08:07;30.10;50.90
46720;DHT22;32452;51.382;-0.002;2023-07-08T07:10:53;29.60;51.60
46720;DHT22;32452;51.382;-0.002;2023-07-08T07:13:39;29.50;53.10
46720;DHT22;32452;51.382;-0.002;2023-07-08T07:16:25;29.50;53.40
46720;DHT22;32452;51.382;-0.002;2023-07-08T07:19:11;29.70;52.30
46720;DHT22;32452;51.382;-0.002;2023-07-08T07:21:56;30.00;52.20
46720;DHT22;32452;51.382;-0.002;2023-07-08T07:24:42;30.30;52.00
46720;DHT22;32452;51.382;-0.002;2023-07-08T07:27:28;30.10;51.80
46720;DHT22;32452;51.382;-0.002;2023-07-08T07:30:14;30.10;52.00
46720;DHT22;32452;51.382;-0.002;2023-07-08T07:33:01;30.20;52.10
46720;DHT22;32452;51.382;-0.002;2023-07-08T07:35:47;30.00;51.80
46720;DHT22;32452;51.382;-0.002;2023-07-08T07:38:33;29.60;52.20
46720;DHT22;32452;51.382;-0.002;2023-07-08T07:41:19;29.30;53.10
46720;DHT22;32452;51.382;-0.002;2023-07-08T07:44:05;29.20;53.60
46720;DHT22;32452;51.382;-0.002;2023-07-08T07:46:52;29.20;53.90
46720;DHT22;32452;51.382;-0.002;2023-07-08T07:49:40;29.30;53.70
46720;DHT22;32452;51.382;-0.002;2023-07-08T07:52:25;29.80;53.40
46720;DHT22;32452;51.382;-0.002;2023-07-08T07:55:11;30.50;52.70
46720;DHT22;32452;51.382;-0.002;2023-07-08T07:57:59;30.90;51.50
46720;DHT22;32452;51.382;-0.002;2023-07-08T08:00:47;30.80;51.30
46720;DHT22;32452;51.382;-0.002;2023-07-08T08:03:33;30.30;52.10
46720;DHT22;32452;51.382;-0.002;2023-07-08T08:06:19;29.70;52.70
46720;DHT22;32452;51.382;-0.002;2023-07-08T08:09:05;29.10;53.40
46720;DHT22;32452;51.382;-0.002;2023-07-08T08:11:51;28.50;54.30
46720;DHT22;32452;51.382;-0.002;2023-07-08T08:14:37;28.10;55.00
46720;DHT22;32452;51.382;-0.002;2023-07-08T08:17:23;27.70;55.90
46720;DHT22;32452;51.382;-0.002;2023-07-08T08:20:08;27.50;57.20
46720;DHT22;32452;51.382;-0.002;2023-07-08T08:22:54;27.20;56.90
46720;DHT22;32452;51.382;-0.002;2023-07-08T08:25:40;27.00;57.40
46720;DHT22;32452;51.382;-0.002;2023-07-08T08:28:25;26.90;58.30
46720;DHT22;32452;51.382;-0.002;2023-07-08T08:31:11;26.70;59.60
46720;DHT22;32452;51.382;-0.002;2023-07-08T08:33:56;26.60;59.90
46720;DHT22;32452;51.382;-0.002;2023-07-08T08:36:42;26.40;60.70
46720;DHT22;32452;51.382;-0.002;2023-07-08T08:39:28;26.30;61.60
46720;DHT22;32452;51.382;-0.002;2023-07-08T08:45:15;26.10;62.30
46720;DHT22;32452;51.382;-0.002;2023-07-08T08:48:06;26.00;62.90
46720;DHT22;32452;51.382;-0.002;2023-07-08T08:51:16;26.00;63.50
46720;DHT22;32452;51.382;-0.002;2023-07-08T08:54:01;25.90;63.30
46720;DHT22;32452;51.382;-0.002;2023-07-08T09:05:16;26.00;63.50
46720;DHT22;32452;51.382;-0.002;2023-07-08T09:10:58;26.60;62.60
46720;DHT22;32452;51.382;-0.002;2023-07-08T09:13:45;26.90;62.50
46720;DHT22;32452;51.382;-0.002;2023-07-08T09:16:43;27.50;61.30
46720;DHT22;32452;51.382;-0.002;2023-07-08T09:19:39;28.30;59.60
46720;DHT22;32452;51.382;-0.002;2023-07-08T09:25:34;29.00;57.70
46720;DHT22;32452;51.382;-0.002;2023-07-08T09:28:21;29.00;57.30
46720;DHT22;32452;51.382;-0.002;2023-07-08T09:31:21;29.00;57.00
46720;DHT22;32452;51.382;-0.002;2023-07-08T09:34:15;29.10;56.50
46720;DHT22;32452;51.382;-0.002;2023-07-08T09:37:01;29.10;55.30
46720;DHT22;32452;51.382;-0.002;2023-07-08T09:39:48;29.00;54.70
46720;DHT22;32452;51.382;-0.002;2023-07-08T09:42:34;29.00;54.50
46720;DHT22;32452;51.382;-0.002;2023-07-08T09:45:24;29.00;54.00
46720;DHT22;32452;51.382;-0.002;2023-07-08T09:48:21;29.00;54.40
46720;DHT22;32452;51.382;-0.002;2023-07-08T09:51:07;29.10;54.30
46720;DHT22;32452;51.382;-0.002;2023-07-08T09:53:53;29.20;54.20
46720;DHT22;32452;51.382;-0.002;2023-07-08T09:56:43;29.30;53.60
46720;DHT22;32452;51.382;-0.002;2023-07-08T09:59:32;29.40;52.80
46720;DHT22;32452;51.382;-0.002;2023-07-08T10:02:44;29.30;52.60
46720;DHT22;32452;51.382;-0.002;2023-07-08T10:05:38;29.30;52.00
46720;DHT22;32452;51.382;-0.002;2023-07-08T10:08:25;29.40;51.90
46720;DHT22;32452;51.382;-0.002;2023-07-08T10:11:28;29.60;51.50
46720;DHT22;32452;51.382;-0.002;2023-07-08T10:17:15;29.90;51.10
46720;DHT22;32452;51.382;-0.002;2023-07-08T10:20:01;30.00;51.20
46720;DHT22;32452;51.382;-0.002;2023-07-08T10:35:24;29.80;50.40
46720;DHT22;32452;51.382;-0.002;2023-07-08T10:38:45;29.40;50.40
46720;DHT22;32452;51.382;-0.002;2023-07-08T10:41:47;29.00;50.60
46720;DHT22;32452;51.382;-0.002;2023-07-08T10:44:48;28.60;50.90
46720;DHT22;32452;51.382;-0.002;2023-07-08T10:48:00;28.40;51.50
46720;DHT22;32452;51.382;-0.002;2023-07-08T10:57:32;27.50;52.50
46720;DHT22;32452;51.382;-0.002;2023-07-08T11:06:41;26.90;59.10
46720;DHT22;32452;51.382;-0.002;2023-07-08T11:09:35;26.80;60.50
46720;DHT22;32452;51.382;-0.002;2023-07-08T11:12:32;26.70;61.60
46720;DHT22;32452;51.382;-0.002;2023-07-08T11:15:34;26.60;62.90
46720;DHT22;32452;51.382;-0.002;2023-07-08T11:19:04;26.60;63.70
46720;DHT22;32452;51.382;-0.002;2023-07-08T11:21:55;26.60;64.50
46720;DHT22;32452;51.382;-0.002;2023-07-08T11:24:46;26.60;64.70
46720;DHT22;32452;51.382;-0.002;2023-07-08T11:27:36;26.60;65.00
46720;DHT22;32452;51.382;-0.002;2023-07-08T11:30:26;26.60;65.20
46720;DHT22;32452;51.382;-0.002;2023-07-08T11:33:13;26.50;65.50
46720;DHT22;32452;51.382;-0.002;2023-07-08T11:36:01;26.40;65.20
46720;DHT22;32452;51.382;-0.002;2023-07-08T11:38:50;26.30;65.50
46720;DHT22;32452;51.382;-0.002;2023-07-08T11:41:35;26.20;65.80
46720;DHT22;32452;51.382;-0.002;2023-07-08T11:44:21;26.10;65.90
46720;DHT22;32452;51.382;-0.002;2023-07-08T11:47:48;26.10;66.10
46720;DHT22;32452;51.382;-0.002;2023-07-08T11:50:31;26.00;66.10
46720;DHT22;32452;51.382;-0.002;2023-07-08T11:53:46;25.90;65.50
46720;DHT22;32452;51.382;-0.002;2023-07-08T11:59:37;25.70;64.70
46720;DHT22;32452;51.382;-0.002;2023-07-08T12:02:23;25.70;64.50
46720;DHT22;32452;51.382;-0.002;2023-07-08T12:05:12;25.50;64.30
46720;DHT22;32452;51.382;-0.002;2023-07-08T12:07:59;25.50;64.60
46720;DHT22;32452;51.382;-0.002;2023-07-08T12:10:51;25.50;65.50
46720;DHT22;32452;51.382;-0.002;2023-07-08T12:13:36;25.40;66.20
46720;DHT22;32452;51.382;-0.002;2023-07-08T12:16:22;25.40;67.50
46720;DHT22;32452;51.382;-0.002;2023-07-08T12:19:13;25.30;67.80
46720;DHT22;32452;51.382;-0.002;2023-07-08T12:22:00;25.30;68.60
46720;DHT22;32452;51.382;-0.002;2023-07-08T12:24:46;25.30;69.20
46720;DHT22;32452;51.382;-0.002;2023-07-08T12:27:31;25.20;70.20
46720;DHT22;32452;51.382;-0.002;2023-07-08T12:30:17;25.20;71.00
46720;DHT22;32452;51.382;-0.002;2023-07-08T12:33:03;25.20;72.10
46720;DHT22;32452;51.382;-0.002;2023-07-08T12:35:55;25.20;72.80
46720;DHT22;32452;51.382;-0.002;2023-07-08T12:38:43;25.20;73.30
46720;DHT22;32452;51.382;-0.002;2023-07-08T12:41:34;25.10;73.60
46720;DHT22;32452;51.382;-0.002;2023-07-08T12:44:26;25.00;73.80
46720;DHT22;32452;51.382;-0.002;2023-07-08T12:47:12;24.90;74.50
46720;DHT22;32452;51.382;-0.002;2023-07-08T12:49:57;24.70;75.30
46720;DHT22;32452;51.382;-0.002;2023-07-08T12:52:46;24.60;76.30
46720;DHT22;32452;51.382;-0.002;2023-07-08T12:55:32;24.50;77.90
46720;DHT22;32452;51.382;-0.002;2023-07-08T12:58:27;24.40;78.80
46720;DHT22;32452;51.382;-0.002;2023-07-08T13:01:18;24.30;79.60
46720;DHT22;32452;51.382;-0.002;2023-07-08T13:04:10;24.10;80.30
46720;DHT22;32452;51.382;-0.002;2023-07-08T13:06:56;24.00;80.50
46720;DHT22;32452;51.382;-0.002;2023-07-08T13:09:45;23.80;81.20
46720;DHT22;32452;51.382;-0.002;2023-07-08T13:12:35;23.70;82.90
46720;DHT22;32452;51.382;-0.002;2023-07-08T13:15:29;23.60;83.40
46720;DHT22;32452;51.382;-0.002;2023-07-08T13:21:15;23.70;85.50
46720;DHT22;32452;51.382;-0.002;2023-07-08T13:24:01;23.80;86.70
46720;DHT22;32452;51.382;-0.002;2023-07-08T13:26:49;24.00;86.70
46720;DHT22;32452;51.382;-0.002;2023-07-08T13:29:35;24.40;87.00
46720;DHT22;32452;51.382;-0.002;2023-07-08T13:32:29;24.70;86.90
46720;DHT22;32452;51.382;-0.002;2023-07-08T13:38:25;25.50;85.60
46720;DHT22;32452;51.382;-0.002;2023-07-08T13:41:19;25.70;84.80
46720;DHT22;32452;51.382;-0.002;2023-07-08T13:44:07;25.80;82.50
46720;DHT22;32452;51.382;-0.002;2023-07-08T13:46:56;26.10;81.50
46720;DHT22;32452;51.382;-0.002;2023-07-08T13:49:44;26.20;80.50
46720;DHT22;32452;51.382;-0.002;2023-07-08T13:52:30;26.20;80.10
46720;DHT22;32452;51.382;-0.002;2023-07-08T13:55:18;26.20;79.40
46720;DHT22;32452;51.382;-0.002;2023-07-08T13:58:06;26.20;79.30
46720;DHT22;32452;51.382;-0.002;2023-07-08T14:00:57;26.10;79.80
46720;DHT22;32452;51.382;-0.002;2023-07-08T14:03:43;26.10;80.40
46720;DHT22;32452;51.382;-0.002;2023-07-08T14:06:32;26.20;80.40
46720;DHT22;32452;51.382;-0.002;2023-07-08T14:09:20;26.20;80.20
46720;DHT22;32452;51.382;-0.002;2023-07-08T14:12:07;26.30;80.70
46720;DHT22;32452;51.382;-0.002;2023-07-08T14:14:53;26.30;80.40
46720;DHT22;32452;51.382;-0.002;2023-07-08T14:17:38;26.40;80.10
46720;DHT22;32452;51.382;-0.002;2023-07-08T14:20:25;26.50;80.20
46720;DHT22;32452;51.382;-0.002;2023-07-08T14:23:12;26.50;80.30
46720;DHT22;32452;51.382;-0.002;2023-07-08T14:25:58;26.60;80.20
46720;DHT22;32452;51.382;-0.002;2023-07-08T14:28:43;26.60;80.20
46720;DHT22;32452;51.382;-0.002;2023-07-08T14:31:29;26.60;80.10
46720;DHT22;32452;51.382;-0.002;2023-07-08T14:34:24;26.50;79.40
46720;DHT22;32452;51.382;-0.002;2023-07-08T14:37:14;26.50;79.50
46720;DHT22;32452;51.382;-0.002;2023-07-08T14:40:05;26.40;79.70
46720;DHT22;32452;51.382;-0.002;2023-07-08T14:43:01;26.40;79.70
46720;DHT22;32452;51.382;-0.002;2023-07-08T14:45:52;26.40;79.80
46720;DHT22;32452;51.382;-0.002;2023-07-08T14:48:38;26.40;79.80
46720;DHT22;32452;51.382;-0.002;2023-07-08T14:51:25;26.30;79.40
46720;DHT22;32452;51.382;-0.002;2023-07-08T14:54:10;26.30;79.90
46720;DHT22;32452;51.382;-0.002;2023-07-08T14:56:56;26.30;80.60
46720;DHT22;32452;51.382;-0.002;2023-07-08T14:59:42;26.20;81.10
46720;DHT22;32452;51.382;-0.002;2023-07-08T15:02:28;26.20;80.90
46720;DHT22;32452;51.382;-0.002;2023-07-08T15:05:22;26.10;81.00
46720;DHT22;32452;51.382;-0.002;2023-07-08T15:08:09;26.10;80.70
46720;DHT22;32452;51.382;-0.002;2023-07-08T15:10:55;26.10;80.40
46720;DHT22;32452;51.382;-0.002;2023-07-08T15:13:42;26.10;79.90
46720;DHT22;32452;51.382;-0.002;2023-07-08T15:16:30;26.10;79.10
46720;DHT22;32452;51.382;-0.002;2023-07-08T15:19:18;26.20;78.50
46720;DHT22;32452;51.382;-0.002;2023-07-08T15:22:04;26.20;78.50
46720;DHT22;32452;51.382;-0.002;2023-07-08T15:24:50;26.20;78.40
46720;DHT22;32452;51.382;-0.002;2023-07-08T15:27:38;26.30;77.60
46720;DHT22;32452;51.382;-0.002;2023-07-08T15:30:25;26.30;77.70
46720;DHT22;32452;51.382;-0.002;2023-07-08T15:33:14;26.40;77.90
46720;DHT22;32452;51.382;-0.002;2023-07-08T15:36:01;26.40;76.40
46720;DHT22;32452;51.382;-0.002;2023-07-08T15:38:46;26.50;75.80
46720;DHT22;32452;51.382;-0.002;2023-07-08T15:41:32;26.50;75.80
46720;DHT22;32452;51.382;-0.002;2023-07-08T15:44:19;26.60;75.80
46720;DHT22;32452;51.382;-0.002;2023-07-08T15:47:07;26.80;75.10
46720;DHT22;32452;51.382;-0.002;2023-07-08T15:49:57;26.80;74.30
46720;DHT22;32452;51.382;-0.002;2023-07-08T15:52:43;26.70;73.90
46720;DHT22;32452;51.382;-0.002;2023-07-08T15:55:34;26.70;73.20
46720;DHT22;32452;51.382;-0.002;2023-07-08T15:58:29;26.70;72.70
46720;DHT22;32452;51.382;-0.002;2023-07-08T16:01:21;26.70;73.00
46720;DHT22;32452;51.382;-0.002;2023-07-08T16:04:25;26.60;72.60
46720;DHT22;32452;51.382;-0.002;2023-07-08T16:07:11;26.60;73.30
46720;DHT22;32452;51.382;-0.002;2023-07-08T16:09:57;26.50;73.30
46720;DHT22;32452;51.382;-0.002;2023-07-08T16:12:43;26.50;74.10
46720;DHT22;32452;51.382;-0.002;2023-07-08T16:15:32;26.40;73.70
46720;DHT22;32452;51.382;-0.002;2023-07-08T16:18:19;26.50;73.60
46720;DHT22;32452;51.382;-0.002;2023-07-08T16:21:05;26.40;73.20
46720;DHT22;32452;51.382;-0.002;2023-07-08T16:23:51;26.30;73.00
46720;DHT22;32452;51.382;-0.002;2023-07-08T16:26:39;26.20;72.80
46720;DHT22;32452;51.382;-0.002;2023-07-08T16:29:26;26.10;73.40
46720;DHT22;32452;51.382;-0.002;2023-07-08T16:32:13;26.10;73.20
46720;DHT22;32452;51.382;-0.002;2023-07-08T16:35:00;26.00;72.50
46720;DHT22;32452;51.382;-0.002;2023-07-08T16:37:47;26.00;72.60
46720;DHT22;32452;51.382;-0.002;2023-07-08T16:40:34;26.10;72.00
46720;DHT22;32452;51.382;-0.002;2023-07-08T16:43:29;26.10;71.70
46720;DHT22;32452;51.382;-0.002;2023-07-08T16:46:17;26.20;71.70
46720;DHT22;32452;51.382;-0.002;2023-07-08T16:49:03;26.20;71.80
46720;DHT22;32452;51.382;-0.002;2023-07-08T16:51:49;26.20;72.10
46720;DHT22;32452;51.382;-0.002;2023-07-08T16:54:35;26.10;72.30
46720;DHT22;32452;51.382;-0.002;2023-07-08T16:57:25;26.10;72.50
46720;DHT22;32452;51.382;-0.002;2023-07-08T17:00:15;26.00;73.10
46720;DHT22;32452;51.382;-0.002;2023-07-08T17:03:00;25.90;73.30
46720;DHT22;32452;51.382;-0.002;2023-07-08T17:05:46;25.80;73.50
46720;DHT22;32452;51.382;-0.002;2023-07-08T17:08:32;25.80;74.00
46720;DHT22;32452;51.382;-0.002;2023-07-08T17:11:18;25.70;74.50
46720;DHT22;32452;51.382;-0.002;2023-07-08T17:14:03;25.60;75.00
46720;DHT22;32452;51.382;-0.002;2023-07-08T17:16:49;25.50;75.40
46720;DHT22;32452;51.382;-0.002;2023-07-08T17:19:34;25.50;75.80
46720;DHT22;32452;51.382;-0.002;2023-07-08T17:22:20;25.50;76.20
46720;DHT22;32452;51.382;-0.002;2023-07-08T17:25:12;25.50;76.60
46720;DHT22;32452;51.382;-0.002;2023-07-08T17:27:59;25.50;77.20
46720;DHT22;32452;51.382;-0.002;2023-07-08T17:30:48;25.50;77.40
46720;DHT22;32452;51.382;-0.002;2023-07-08T17:33:34;25.60;77.20
46720;DHT22;32452;51.382;-0.002;2023-07-08T17:36:23;25.60;76.90
46720;DHT22;32452;51.382;-0.002;2023-07-08T17:39:12;25.60;76.90
46720;DHT22;32452;51.382;-0.002;2023-07-08T17:41:58;25.60;76.80
46720;DHT22;32452;51.382;-0.002;2023-07-08T17:44:43;25.60;77.00
46720;DHT22;32452;51.382;-0.002;2023-07-08T17:47:29;25.60;77.30
46720;DHT22;32452;51.382;-0.002;2023-07-08T17:50:19;25.50;77.50
46720;DHT22;32452;51.382;-0.002;2023-07-08T17:53:09;25.50;77.60
46720;DHT22;32452;51.382;-0.002;2023-07-08T17:55:55;25.50;77.50
46720;DHT22;32452;51.382;-0.002;2023-07-08T17:58:43;25.50;77.60
46720;DHT22;32452;51.382;-0.002;2023-07-08T18:01:30;25.50;77.80
46720;DHT22;32452;51.382;-0.002;2023-07-08T18:04:16;25.50;78.40
46720;DHT22;32452;51.382;-0.002;2023-07-08T18:07:02;25.50;78.80
46720;DHT22;32452;51.382;-0.002;2023-07-08T18:09:49;25.40;79.10
46720;DHT22;32452;51.382;-0.002;2023-07-08T18:12:35;25.40;80.50
46720;DHT22;32452;51.382;-0.002;2023-07-08T18:15:32;25.40;80.30
46720;DHT22;32452;51.382;-0.002;2023-07-08T18:18:19;25.40;80.80
46720;DHT22;32452;51.382;-0.002;2023-07-08T18:21:11;25.30;81.10